createdAt,value
2018-07-10T00:02:35.108Z,39.21
2018-07-10T00:06:43.796Z,40.48
2018-07-10T00:10:24.236Z,40.38
2018-07-10T00:12:53.204Z,40.16
2018-07-10T00:15:21.999Z,39.81
2018-07-10T00:17:50.536Z,39.74
2018-07-10T00:20:19.473Z,41.08
2018-07-10T00:22:48.945Z,40.39
2018-07-10T00:25:18.318Z,41.14
2018-07-10T00:27:47.139Z,40.79
2018-07-10T00:30:16.004Z,40.94
2018-07-10T00:32:44.591Z,41.54
2018-07-10T00:35:13.432Z,41.09
2018-07-10T00:37:51.921Z,42.38
2018-07-10T00:40:20.827Z,42.47
2018-07-10T00:42:49.793Z,42.55
2018-07-10T00:45:18.611Z,42.59
2018-07-10T00:47:47.908Z,41.44
2018-07-10T00:50:17.588Z,42.55
2018-07-10T00:52:46.230Z,42.58
2018-07-10T00:55:14.998Z,41.84
2018-07-10T00:57:43.646Z,41.81
2018-07-10T01:00:18.841Z,41.67
2018-07-10T01:02:47.888Z,41.53
2018-07-10T01:05:16.516Z,41.43
2018-07-10T01:07:45.220Z,42.03
2018-07-10T01:10:14.134Z,42.41
2018-07-10T01:12:42.765Z,41.72
2018-07-10T01:15:11.432Z,41.43
2018-07-10T01:17:40.111Z,41.81
2018-07-10T01:20:08.911Z,42.33
2018-07-10T01:22:37.802Z,42.17
2018-07-10T01:25:07.339Z,41.91
2018-07-10T01:27:36.772Z,42.29
2018-07-10T01:30:05.475Z,42.67
2018-07-10T01:32:34.211Z,42.96
2018-07-10T01:35:02.963Z,43.03
2018-07-10T01:37:32.179Z,42.95
2018-07-10T01:40:02.102Z,43.29
2018-07-10T01:42:31.504Z,42.74
2018-07-10T01:45:00.488Z,42.94
2018-07-10T01:47:29.154Z,43.69
2018-07-10T01:49:58.384Z,43.69
2018-07-10T01:52:26.962Z,44.39
2018-07-10T01:54:55.659Z,44.53
2018-07-10T01:57:25.672Z,44.53
2018-07-10T01:59:54.820Z,44.70
2018-07-10T02:02:24.432Z,44.53
2018-07-10T02:04:54.519Z,44.30
2018-07-10T02:07:23.411Z,44.70
2018-07-10T02:09:52.072Z,45.16
2018-07-10T02:12:20.773Z,45.21
2018-07-10T02:14:49.390Z,44.67
2018-07-10T02:17:18.187Z,45.74
2018-07-10T02:19:47.095Z,45.52
2018-07-10T02:22:15.876Z,45.66
2018-07-10T02:24:44.839Z,46.18
2018-07-10T02:27:14.864Z,45.79
2018-07-10T02:29:44.059Z,46.10
2018-07-10T02:32:12.800Z,46.51
2018-07-10T02:34:41.574Z,46.35
2018-07-10T02:37:10.275Z,46.44
2018-07-10T02:39:38.909Z,46.50
2018-07-10T02:42:08.012Z,46.32
2018-07-10T02:44:36.695Z,46.86
2018-07-10T02:47:05.527Z,46.53
2018-07-10T02:49:34.456Z,46.81
2018-07-10T02:52:06.582Z,46.98
2018-07-10T02:54:38.882Z,47.22
2018-07-10T02:57:09.443Z,47.60
2018-07-10T02:59:42.180Z,47.52
2018-07-10T03:02:17.948Z,47.20
2018-07-10T03:04:47.003Z,47.47
2018-07-10T03:07:17.824Z,47.59
2018-07-10T03:09:47.856Z,47.18
2018-07-10T03:12:17.823Z,47.63
2018-07-10T03:14:46.728Z,47.27
2018-07-10T03:17:20.272Z,47.83
2018-07-10T03:19:49.449Z,47.57
2018-07-10T03:22:19.152Z,48.01
2018-07-10T03:24:48.611Z,48.10
2018-07-10T03:27:17.316Z,48.30
2018-07-10T03:29:46.179Z,48.69
2018-07-10T03:32:14.938Z,48.53
2018-07-10T03:34:44.768Z,49.03
2018-07-10T03:37:13.521Z,48.48
2018-07-10T03:39:42.943Z,48.26
2018-07-10T03:42:13.148Z,48.26
2018-07-10T03:44:44.186Z,48.93
2018-07-10T03:47:15.519Z,48.50
2018-07-10T03:49:45.885Z,47.74
2018-07-10T03:52:24.373Z,48.79
2018-07-10T03:54:53.815Z,48.46
2018-07-10T03:57:23.448Z,48.53
2018-07-10T03:59:57.592Z,48.83
2018-07-10T04:02:26.730Z,48.78
2018-07-10T04:04:55.870Z,48.34
2018-07-10T04:07:25.343Z,48.55
2018-07-10T04:09:56.136Z,48.60
2018-07-10T04:12:30.104Z,47.94
2018-07-10T04:14:58.884Z,48.49
2018-07-10T04:17:32.364Z,48.91
2018-07-10T04:20:01.540Z,48.85
2018-07-10T04:22:30.461Z,48.04
2018-07-10T04:25:01.307Z,48.20
2018-07-10T04:27:36.469Z,48.58
2018-07-10T04:30:13.758Z,47.53
2018-07-10T04:32:43.076Z,48.26
2018-07-10T04:35:15.536Z,48.39
2018-07-10T04:37:51.499Z,48.25
2018-07-10T04:40:21.135Z,48.06
2018-07-10T04:42:58.303Z,47.65
2018-07-10T04:45:48.265Z,47.05
2018-07-10T04:48:39.743Z,48.21
2018-07-10T04:51:35.895Z,47.94
2018-07-10T04:54:40.783Z,48.36
2018-07-10T04:57:14.672Z,47.65
2018-07-10T04:59:43.368Z,48.73
2018-07-10T05:02:12.847Z,48.21
2018-07-10T05:04:41.592Z,48.16
2018-07-10T05:07:11.788Z,48.53
2018-07-10T05:09:42.325Z,48.40
2018-07-10T05:12:11.013Z,48.23
2018-07-10T05:14:43.588Z,48.60
2018-07-10T05:17:12.948Z,48.14
2018-07-10T05:19:41.847Z,48.44
2018-07-10T05:22:10.921Z,49.10
2018-07-10T05:24:39.832Z,49.00
2018-07-10T05:27:08.667Z,48.60
2018-07-10T05:29:37.495Z,48.52
2018-07-10T05:32:06.165Z,49.21
2018-07-10T05:34:37.615Z,48.79
2018-07-10T05:37:06.508Z,49.54
2018-07-10T05:39:36.484Z,49.48
2018-07-10T05:42:05.164Z,49.55
2018-07-10T05:44:34.344Z,49.46
2018-07-10T05:47:03.920Z,49.10
2018-07-10T05:49:38.258Z,49.06
2018-07-10T05:52:07.566Z,49.15
2018-07-10T05:54:38.174Z,49.20
2018-07-10T05:57:07.732Z,48.85
2018-07-10T05:59:36.651Z,49.49
2018-07-10T06:02:05.316Z,49.20
2018-07-10T06:04:34.141Z,49.09
2018-07-10T06:07:03.879Z,48.20
2018-07-10T06:09:32.447Z,48.82
2018-07-10T06:12:01.292Z,48.41
2018-07-10T06:14:29.935Z,49.14
2018-07-10T06:16:58.595Z,48.59
2018-07-10T06:19:27.433Z,49.39
2018-07-10T06:21:56.203Z,48.95
2018-07-10T06:24:27.091Z,49.06
2018-07-10T06:27:02.083Z,49.10
2018-07-10T06:30:05.128Z,49.22
2018-07-10T06:32:43.509Z,48.86
2018-07-10T06:35:12.495Z,49.49
2018-07-10T06:37:43.003Z,48.83
2018-07-10T06:40:11.809Z,49.10
2018-07-10T06:42:53.430Z,50.14
2018-07-10T06:45:22.399Z,49.06
2018-07-10T06:50:22.351Z,48.91
2018-07-10T06:52:53.353Z,48.94
2018-07-10T06:55:22.248Z,49.14
2018-07-10T06:57:59.474Z,49.69
2018-07-10T07:00:28.729Z,50.35
2018-07-10T07:02:57.570Z,50.64
2018-07-10T07:05:26.352Z,50.88
2018-07-10T07:07:55.284Z,50.64
2018-07-10T07:10:25.118Z,50.81
2018-07-10T07:12:53.775Z,51.62
2018-07-10T07:15:22.500Z,52.25
2018-07-10T07:17:53.006Z,52.28
2018-07-10T07:20:23.058Z,53.16
2018-07-10T07:22:52.419Z,52.95
2018-07-10T07:25:21.091Z,53.37
2018-07-10T07:27:50.689Z,53.65
2018-07-10T07:30:19.495Z,53.35
2018-07-10T07:32:49.011Z,52.79
2018-07-10T07:35:18.232Z,51.86
2018-07-10T07:37:47.340Z,51.72
2018-07-10T07:40:15.971Z,50.90
2018-07-10T07:42:44.939Z,50.88
2018-07-10T07:45:13.707Z,49.35
2018-07-10T07:47:42.694Z,49.48
2018-07-10T07:50:11.584Z,48.98
2018-07-10T07:52:40.244Z,48.53
2018-07-10T07:55:08.912Z,47.68
2018-07-10T07:57:37.940Z,46.99
2018-07-10T08:00:06.616Z,46.09
2018-07-10T08:02:35.272Z,45.33
2018-07-10T08:05:03.989Z,45.14
2018-07-10T08:07:32.648Z,43.93
2018-07-10T08:10:01.840Z,43.41
2018-07-10T08:12:31.916Z,44.11
2018-07-10T08:15:02.808Z,43.43
2018-07-10T08:17:33.619Z,43.40
2018-07-10T08:20:02.444Z,43.15
2018-07-10T08:22:31.276Z,41.02
2018-07-10T08:25:00.083Z,40.78
2018-07-10T08:27:29.231Z,38.67
2018-07-10T08:29:58.520Z,37.63
2018-07-10T08:32:28.680Z,36.64
2018-07-10T08:34:57.547Z,35.52
2018-07-10T08:37:26.303Z,34.73
2018-07-10T08:39:55.067Z,34.12
2018-07-10T08:42:24.043Z,33.71
2018-07-10T08:44:52.682Z,32.46
2018-07-10T08:47:21.380Z,32.98
2018-07-10T08:49:50.179Z,32.95
2018-07-10T08:52:20.511Z,34.86
2018-07-10T08:54:50.113Z,35.94
2018-07-10T08:57:18.961Z,37.60
2018-07-10T08:59:48.441Z,37.72
2018-07-10T09:02:17.583Z,37.47
2018-07-10T09:04:46.360Z,35.68
2018-07-10T09:07:15.036Z,38.10
2018-07-10T09:09:44.180Z,40.60
2018-07-10T09:12:12.998Z,42.36
2018-07-10T09:14:41.812Z,44.41
2018-07-10T09:17:10.715Z,45.80
2018-07-10T09:19:39.963Z,46.39
2018-07-10T09:22:12.238Z,47.05
2018-07-10T09:24:47.723Z,47.90
2018-07-10T09:27:18.991Z,47.51
2018-07-10T09:29:48.698Z,47.73
2018-07-10T09:32:24.773Z,48.37
2018-07-10T09:34:54.543Z,48.12
2018-07-10T09:37:28.507Z,47.39
2018-07-10T09:40:02.623Z,46.27
2018-07-10T09:42:32.715Z,44.51
2018-07-10T09:45:03.348Z,41.65
2018-07-10T09:47:32.236Z,36.23
2018-07-10T09:50:01.542Z,34.56
2018-07-10T09:52:30.272Z,33.23
2018-07-10T09:54:59.069Z,35.57
2018-07-10T09:57:27.661Z,36.71
2018-07-10T09:59:56.343Z,39.88
2018-07-10T10:02:31.333Z,39.81
2018-07-10T10:05:02.324Z,40.80
2018-07-10T10:07:34.976Z,41.83
2018-07-10T10:10:04.719Z,43.89
2018-07-10T10:12:33.917Z,43.21
2018-07-10T10:15:03.028Z,45.91
2018-07-10T10:17:32.196Z,45.53
2018-07-10T10:20:01.109Z,45.88
2018-07-10T10:22:32.687Z,44.84
2018-07-10T10:25:03.691Z,43.57
2018-07-10T10:27:32.609Z,42.86
2018-07-10T10:30:02.013Z,41.12
2018-07-10T10:32:31.112Z,41.63
2018-07-10T10:35:00.107Z,42.57
2018-07-10T10:37:28.964Z,41.52
2018-07-10T10:39:58.352Z,44.16
2018-07-10T10:42:27.968Z,45.17
2018-07-10T10:44:59.988Z,45.17
2018-07-10T10:47:29.067Z,46.04
2018-07-10T10:49:59.467Z,46.48
2018-07-10T10:52:28.934Z,46.34
2018-07-10T10:54:57.740Z,47.44
2018-07-10T10:57:27.839Z,48.46
2018-07-10T10:59:56.983Z,49.97
2018-07-10T11:02:26.080Z,49.96
2018-07-10T11:04:54.985Z,50.85
2018-07-10T11:07:23.722Z,51.93
2018-07-10T11:09:52.387Z,51.41
2018-07-10T11:12:21.575Z,50.45
2018-07-10T11:14:50.206Z,50.30
2018-07-10T11:17:28.887Z,49.98
2018-07-10T11:20:04.988Z,49.67
2018-07-10T11:22:38.360Z,47.64
2018-07-10T11:25:08.416Z,46.58
2018-07-10T11:28:04.563Z,45.07
2018-07-10T11:30:33.710Z,42.93
2018-07-10T11:33:04.188Z,42.18
2018-07-10T11:35:33.866Z,40.67
2018-07-10T11:38:05.530Z,37.59
2018-07-10T11:40:35.020Z,34.92
2018-07-10T11:43:05.536Z,32.94
2018-07-10T11:45:34.324Z,30.59
2018-07-10T11:48:03.195Z,26.30
2018-07-10T11:50:32.347Z,25.79
2018-07-10T11:53:01.074Z,26.41
2018-07-10T11:55:29.907Z,29.74
2018-07-10T11:57:58.931Z,31.56
2018-07-10T12:00:27.704Z,33.64
2018-07-10T12:02:56.386Z,33.33
2018-07-10T12:05:25.398Z,31.28
2018-07-10T12:07:58.385Z,29.66
2018-07-10T12:10:30.439Z,27.96
2018-07-10T12:12:59.208Z,28.38
2018-07-10T12:15:27.937Z,30.64
2018-07-10T12:17:58.083Z,32.46
2018-07-10T12:20:35.607Z,32.83
2018-07-10T12:23:07.910Z,33.95
2018-07-10T12:25:40.245Z,33.48
2018-07-10T12:28:10.204Z,34.23
2018-07-10T12:30:39.182Z,29.69
2018-07-10T12:33:08.455Z,25.00
2018-07-10T12:35:37.579Z,23.49
2018-07-10T12:38:06.314Z,22.11
2018-07-10T12:40:35.527Z,20.70
2018-07-10T12:43:04.215Z,20.32
2018-07-10T12:45:32.924Z,21.42
2018-07-10T12:48:01.945Z,24.64
2018-07-10T12:50:30.795Z,25.86
2018-07-10T12:52:59.468Z,25.61
2018-07-10T12:55:28.204Z,26.66
2018-07-10T12:57:57.784Z,24.92
2018-07-10T13:00:28.727Z,23.65
2018-07-10T13:02:58.439Z,21.51
2018-07-10T13:05:35.080Z,20.37
2018-07-10T13:08:03.799Z,18.65
2018-07-10T13:10:32.459Z,18.76
2018-07-10T13:13:01.097Z,20.83
2018-07-10T13:15:29.852Z,17.38
2018-07-10T13:17:59.376Z,19.40
2018-07-10T13:20:28.027Z,20.23
2018-07-10T13:22:56.845Z,20.86
2018-07-10T13:25:25.403Z,19.17
2018-07-10T13:27:54.067Z,19.73
2018-07-10T13:30:23.554Z,20.42
2018-07-10T13:32:52.416Z,20.27
2018-07-10T13:35:21.063Z,18.78
2018-07-10T13:37:49.871Z,19.77
2018-07-10T13:40:18.530Z,18.44
2018-07-10T13:42:52.875Z,18.44
2018-07-10T13:45:22.855Z,18.25
2018-07-10T13:47:51.447Z,18.44
2018-07-10T13:50:22.295Z,17.95
2018-07-10T13:52:51.386Z,18.03
2018-07-10T13:55:20.064Z,18.01
2018-07-10T13:57:54.436Z,17.36
2018-07-10T14:00:23.376Z,18.54
2018-07-10T14:02:54.790Z,19.67
2018-07-10T14:05:24.589Z,19.05
2018-07-10T14:07:53.531Z,20.17
2018-07-10T14:10:22.825Z,22.33
2018-07-10T14:12:51.873Z,22.60
2018-07-10T14:15:20.535Z,23.27
2018-07-10T14:17:49.552Z,23.49
2018-07-10T14:20:18.427Z,22.44
2018-07-10T14:22:47.204Z,23.63
2018-07-10T14:25:15.943Z,24.41
2018-07-10T14:27:45.115Z,25.18
2018-07-10T14:30:14.013Z,26.48
2018-07-10T14:32:42.768Z,27.98
2018-07-10T14:35:11.993Z,26.66
2018-07-10T14:37:40.625Z,23.64
2018-07-10T14:40:09.322Z,21.00
2018-07-10T14:42:38.431Z,19.86
2018-07-10T14:45:07.728Z,18.57
2018-07-10T14:47:37.888Z,19.29
2018-07-10T14:50:07.509Z,20.72
2018-07-10T14:52:36.581Z,22.59
2018-07-10T14:55:05.435Z,24.01
2018-07-10T14:57:34.200Z,22.99
2018-07-10T15:00:02.926Z,21.93
2018-07-10T15:02:31.769Z,22.01
2018-07-10T15:05:00.565Z,22.20
2018-07-10T15:07:29.147Z,20.99
2018-07-10T15:09:58.071Z,22.59
2018-07-10T15:12:27.156Z,22.60
2018-07-10T15:14:56.187Z,23.77
2018-07-10T15:17:30.107Z,23.97
2018-07-10T15:19:58.712Z,26.03
2018-07-10T15:22:27.420Z,26.40
2018-07-10T15:24:56.335Z,27.48
2018-07-10T15:27:25.038Z,27.36
2018-07-10T15:29:55.172Z,27.82
2018-07-10T15:32:24.974Z,27.51
2018-07-10T15:34:53.811Z,28.33
2018-07-10T15:37:22.705Z,27.99
2018-07-10T15:39:51.540Z,27.27
2018-07-10T15:42:20.588Z,28.46
2018-07-10T15:44:49.262Z,28.17
2018-07-10T15:47:18.216Z,27.99
2018-07-10T15:49:46.995Z,28.19
2018-07-10T15:52:15.700Z,28.11
2018-07-10T15:54:44.292Z,28.26
2018-07-10T15:57:12.863Z,29.16
2018-07-10T15:59:42.289Z,28.39
2018-07-10T16:02:11.296Z,29.35
2018-07-10T16:04:39.891Z,29.06
2018-07-10T16:07:08.581Z,29.41
2018-07-10T16:09:37.892Z,29.81
2018-07-10T16:12:07.411Z,29.37
2018-07-10T16:14:39.344Z,28.72
2018-07-10T16:17:19.018Z,28.46
2018-07-10T16:19:49.691Z,29.27
2018-07-10T16:22:21.299Z,29.72
2018-07-10T16:24:53.047Z,29.08
2018-07-10T16:27:26.903Z,29.87
2018-07-10T16:29:56.260Z,30.25
2018-07-10T16:32:25.859Z,29.21
2018-07-10T16:34:54.528Z,29.39
2018-07-10T16:37:23.483Z,29.01
2018-07-10T16:39:52.154Z,28.50
2018-07-10T16:42:26.384Z,29.62
2018-07-10T16:44:55.119Z,29.45
2018-07-10T16:47:31.115Z,28.87
2018-07-10T16:50:05.552Z,29.44
2018-07-10T16:52:57.884Z,30.03
2018-07-10T16:55:27.976Z,29.02
2018-07-10T16:57:56.868Z,28.81
2018-07-10T17:00:26.367Z,29.15
2018-07-10T17:02:55.983Z,28.41
2018-07-10T17:05:25.611Z,29.46
2018-07-10T17:07:54.549Z,29.00
2018-07-10T17:10:23.551Z,29.18
2018-07-10T17:12:52.228Z,29.37
2018-07-10T17:15:20.893Z,29.15
2018-07-10T17:17:49.775Z,28.81
2018-07-10T17:20:18.382Z,29.20
2018-07-10T17:22:46.962Z,30.05
2018-07-10T17:25:16.307Z,29.74
2018-07-10T17:27:48.792Z,30.02
2018-07-10T17:30:17.789Z,31.27
2018-07-10T17:32:46.625Z,30.81
2018-07-10T17:35:15.285Z,32.18
2018-07-10T17:37:47.068Z,31.63
2018-07-10T17:40:16.527Z,32.06
2018-07-10T17:42:46.391Z,32.56
2018-07-10T17:45:23.724Z,32.72
2018-07-10T17:47:52.404Z,32.23
2018-07-10T17:50:21.602Z,32.71
2018-07-10T17:52:50.220Z,32.88
2018-07-10T17:55:19.468Z,32.29
2018-07-10T17:57:48.761Z,32.59
2018-07-10T18:00:17.585Z,33.08
2018-07-10T18:02:46.460Z,32.81
2018-07-10T18:05:15.159Z,32.72
2018-07-10T18:07:43.844Z,32.60
2018-07-10T18:10:13.786Z,33.22
2018-07-10T18:12:43.089Z,33.13
2018-07-10T18:15:11.792Z,32.75
2018-07-10T18:17:40.592Z,33.73
2018-07-10T18:20:09.484Z,33.14
2018-07-10T18:22:38.282Z,34.01
2018-07-10T18:25:07.440Z,34.00
2018-07-10T18:27:36.091Z,34.52
2018-07-10T18:30:04.879Z,34.89
2018-07-10T18:32:33.664Z,34.96
2018-07-10T18:35:02.256Z,34.68
2018-07-10T18:37:30.897Z,34.96
2018-07-10T18:39:59.819Z,35.75
2018-07-10T18:42:28.507Z,35.15
2018-07-10T18:44:57.475Z,35.20
2018-07-10T18:47:26.232Z,36.19
2018-07-10T18:49:56.465Z,36.21
2018-07-10T18:52:27.936Z,36.58
2018-07-10T18:54:58.805Z,36.62
2018-07-10T18:57:34.104Z,35.90
2018-07-10T19:00:06.401Z,36.35
2018-07-10T19:03:13.404Z,36.00
2018-07-10T19:06:06.651Z,36.67
2018-07-10T19:08:35.746Z,37.00
2018-07-10T19:11:04.658Z,36.56
2018-07-10T19:13:33.382Z,36.64
2018-07-10T19:16:02.124Z,38.12
2018-07-10T19:18:30.703Z,37.34
2018-07-10T19:21:16.179Z,38.31
2018-07-10T19:23:47.879Z,37.55
2018-07-10T19:26:18.068Z,38.73
2018-07-10T19:28:47.443Z,38.34
2018-07-10T19:31:20.021Z,38.12
2018-07-10T19:33:53.760Z,38.71
2018-07-10T19:36:22.475Z,38.53
2018-07-10T19:38:51.168Z,39.36
2018-07-10T19:41:20.776Z,39.26
2018-07-10T19:43:50.195Z,39.44
2018-07-10T19:46:19.007Z,39.36
2018-07-10T19:48:52.011Z,39.16
2018-07-10T19:51:25.045Z,39.74
2018-07-10T19:53:57.859Z,39.98
2018-07-10T19:56:26.819Z,40.11
2018-07-10T19:58:55.782Z,39.96
2018-07-10T20:01:43.800Z,40.44
2018-07-10T20:04:16.259Z,40.96
2018-07-10T20:07:10.592Z,40.89
2018-07-10T20:09:48.707Z,41.62
2018-07-10T20:12:18.992Z,41.76
2018-07-10T20:15:00.792Z,41.72
2018-07-10T20:17:32.369Z,42.13
2018-07-10T20:20:11.618Z,42.22
2018-07-10T20:23:18.720Z,42.24
2018-07-10T20:26:00.827Z,42.48
2018-07-10T20:28:47.244Z,43.29
2018-07-10T20:32:28.812Z,44.11
2018-07-10T20:35:10.612Z,45.26
2018-07-10T20:37:39.507Z,45.89
2018-07-10T20:40:08.345Z,46.11
2018-07-10T20:42:41.613Z,45.97
2018-07-10T20:45:10.676Z,46.08
2018-07-10T20:47:49.209Z,46.73
2018-07-10T20:50:22.956Z,47.63
2018-07-10T20:52:56.423Z,47.58
2018-07-10T20:55:30.688Z,47.31
2018-07-10T20:58:02.520Z,47.68
2018-07-10T21:00:40.005Z,47.81
2018-07-10T21:03:16.828Z,48.33
2018-07-10T21:05:49.816Z,47.88
2018-07-10T21:08:25.620Z,47.77
2018-07-10T21:10:58.251Z,47.88
2018-07-10T21:13:45.009Z,48.25
2018-07-10T21:17:18.368Z,48.65
2018-07-10T21:19:59.151Z,49.62
2018-07-10T21:22:41.776Z,50.00
2018-07-10T21:25:23.264Z,50.87
2018-07-10T21:28:02.669Z,51.46
2018-07-10T21:30:37.113Z,52.00
2018-07-10T21:33:26.580Z,51.61
2018-07-10T21:36:01.461Z,51.88
2018-07-10T21:38:37.588Z,52.42
2018-07-10T21:41:18.295Z,51.99
2018-07-10T21:44:01.807Z,51.91
2018-07-10T21:46:39.393Z,51.95
2018-07-10T21:50:01.748Z,52.07
2018-07-10T21:52:30.650Z,52.92
2018-07-10T21:54:59.695Z,52.98
2018-07-10T21:57:33.507Z,52.88
2018-07-10T22:00:03.356Z,53.62
2018-07-10T22:02:35.707Z,53.76
2018-07-10T22:05:04.430Z,53.89
2018-07-10T22:07:33.250Z,53.99
2018-07-10T22:10:04.824Z,54.26
2018-07-10T22:12:37.497Z,54.10
2018-07-10T22:15:06.244Z,53.97
2018-07-10T22:17:35.468Z,53.89
2018-07-10T22:20:04.284Z,54.51
2018-07-10T22:22:33.983Z,54.86
2018-07-10T22:25:05.556Z,54.65
2018-07-10T22:27:34.323Z,54.96
2018-07-10T22:30:08.098Z,54.31
2018-07-10T22:32:44.567Z,55.01
2018-07-10T22:35:14.183Z,54.90
2018-07-10T22:37:43.168Z,55.65
2018-07-10T22:40:11.879Z,55.55
2018-07-10T22:42:40.524Z,55.57
2018-07-10T22:45:09.230Z,55.74
2018-07-10T22:47:39.328Z,56.28
2018-07-10T22:50:17.275Z,55.50
2018-07-10T22:52:50.887Z,55.57
2018-07-10T22:55:21.798Z,55.50
2018-07-10T22:57:52.449Z,55.86
2018-07-10T23:00:27.211Z,55.56
2018-07-10T23:02:55.867Z,55.79
2018-07-10T23:05:24.716Z,55.74
2018-07-10T23:07:53.543Z,56.32
2018-07-10T23:10:22.531Z,56.55
2018-07-10T23:12:51.507Z,56.64
2018-07-10T23:15:20.287Z,56.92
2018-07-10T23:17:49.475Z,57.03
2018-07-10T23:20:18.184Z,57.06
2018-07-10T23:22:54.579Z,56.80
2018-07-10T23:25:25.175Z,57.06
2018-07-10T23:28:06.791Z,56.82
2018-07-10T23:30:38.143Z,56.96
2018-07-10T23:33:12.171Z,57.16
2018-07-10T23:35:42.235Z,56.96
2018-07-10T23:38:18.763Z,57.44
2018-07-10T23:40:47.393Z,56.72
2018-07-10T23:43:16.115Z,56.33
2018-07-10T23:45:45.392Z,57.39
2018-07-10T23:48:14.088Z,57.59
2018-07-10T23:50:42.907Z,57.18
2018-07-10T23:53:21.779Z,57.65
2018-07-10T23:55:50.475Z,57.98
2018-07-10T23:58:19.023Z,57.92
